sensor_id;sensor_type;location;lat;lon;timestamp;P1;durP1;ratioP1;P2;durP2;ratioP2
61635;SDS011;59438;45.014;39.006;2023-03-01T00:00:19;8.10;;;5.18;;
61635;SDS011;59438;45.014;39.006;2023-03-01T00:02:46;9.25;;;5.30;;
61635;SDS011;59438;45.014;39.006;2023-03-01T00:05:12;7.95;;;5.40;;
61635;SDS011;59438;45.014;39.006;2023-03-01T00:07:38;9.10;;;5.93;;
61635;SDS011;59438;45.014;39.006;2023-03-01T00:10:07;11.20;;;6.13;;
61635;SDS011;59438;45.014;39.006;2023-03-01T00:12:34;8.95;;;6.00;;
61635;SDS011;59438;45.014;39.006;2023-03-01T00:15:01;10.75;;;6.05;;
61635;SDS011;59438;45.014;39.006;2023-03-01T00:17:27;10.85;;;6.07;;
61635;SDS011;59438;45.014;39.006;2023-03-01T00:19:53;9.40;;;6.18;;
61635;SDS011;59438;45.014;39.006;2023-03-01T00:22:20;12.00;;;6.60;;
61635;SDS011;59438;45.014;39.006;2023-03-01T00:24:46;8.63;;;4.90;;
61635;SDS011;59438;45.014;39.006;2023-03-01T00:27:14;8.55;;;5.45;;
61635;SDS011;59438;45.014;39.006;2023-03-01T00:29:40;9.60;;;5.75;;
61635;SDS011;59438;45.014;39.006;2023-03-01T00:32:07;9.80;;;5.80;;
61635;SDS011;59438;45.014;39.006;2023-03-01T00:34:33;8.73;;;5.70;;
61635;SDS011;59438;45.014;39.006;2023-03-01T00:36:59;9.45;;;6.00;;
61635;SDS011;59438;45.014;39.006;2023-03-01T00:39:26;9.70;;;5.70;;
61635;SDS011;59438;45.014;39.006;2023-03-01T00:41:52;9.25;;;6.07;;
61635;SDS011;59438;45.014;39.006;2023-03-01T00:44:20;10.65;;;5.40;;
61635;SDS011;59438;45.014;39.006;2023-03-01T00:46:46;10.63;;;5.75;;
61635;SDS011;59438;45.014;39.006;2023-03-01T00:49:12;8.48;;;5.90;;
61635;SDS011;59438;45.014;39.006;2023-03-01T00:51:39;8.73;;;5.53;;
61635;SDS011;59438;45.014;39.006;2023-03-01T00:54:05;7.95;;;5.60;;
61635;SDS011;59438;45.014;39.006;2023-03-01T00:56:34;11.10;;;6.22;;
61635;SDS011;59438;45.014;39.006;2023-03-01T00:59:00;8.57;;;5.93;;
61635;SDS011;59438;45.014;39.006;2023-03-01T01:01:29;8.23;;;5.65;;
61635;SDS011;59438;45.014;39.006;2023-03-01T01:03:57;12.20;;;5.93;;
61635;SDS011;59438;45.014;39.006;2023-03-01T01:06:25;10.40;;;6.68;;
61635;SDS011;59438;45.014;39.006;2023-03-01T01:08:53;9.50;;;5.90;;
61635;SDS011;59438;45.014;39.006;2023-03-01T01:11:20;8.38;;;5.75;;
61635;SDS011;59438;45.014;39.006;2023-03-01T01:13:47;8.48;;;5.65;;
61635;SDS011;59438;45.014;39.006;2023-03-01T01:16:14;10.45;;;5.68;;
61635;SDS011;59438;45.014;39.006;2023-03-01T01:18:43;9.07;;;5.90;;
61635;SDS011;59438;45.014;39.006;2023-03-01T01:21:10;9.30;;;5.68;;
61635;SDS011;59438;45.014;39.006;2023-03-01T01:23:37;9.93;;;5.72;;
61635;SDS011;59438;45.014;39.006;2023-03-01T01:26:05;10.05;;;5.72;;
61635;SDS011;59438;45.014;39.006;2023-03-01T01:28:33;8.57;;;5.13;;
61635;SDS011;59438;45.014;39.006;2023-03-01T01:30:59;8.68;;;5.20;;
61635;SDS011;59438;45.014;39.006;2023-03-01T01:33:26;10.32;;;6.00;;
61635;SDS011;59438;45.014;39.006;2023-03-01T01:35:53;8.00;;;5.35;;
61635;SDS011;59438;45.014;39.006;2023-03-01T01:38:20;9.90;;;5.78;;
61635;SDS011;59438;45.014;39.006;2023-03-01T01:40:47;10.02;;;6.25;;
61635;SDS011;59438;45.014;39.006;2023-03-01T01:43:16;9.88;;;5.75;;
61635;SDS011;59438;45.014;39.006;2023-03-01T01:45:45;10.43;;;5.68;;
61635;SDS011;59438;45.014;39.006;2023-03-01T01:48:12;9.70;;;5.82;;
61635;SDS011;59438;45.014;39.006;2023-03-01T01:50:42;9.27;;;6.13;;
61635;SDS011;59438;45.014;39.006;2023-03-01T01:53:11;9.07;;;5.40;;
61635;SDS011;59438;45.014;39.006;2023-03-01T01:55:41;9.43;;;6.05;;
61635;SDS011;59438;45.014;39.006;2023-03-01T01:58:11;9.57;;;6.32;;
61635;SDS011;59438;45.014;39.006;2023-03-01T02:00:41;12.07;;;6.80;;
61635;SDS011;59438;45.014;39.006;2023-03-01T02:03:08;10.73;;;6.55;;
61635;SDS011;59438;45.014;39.006;2023-03-01T02:05:39;14.10;;;6.82;;
61635;SDS011;59438;45.014;39.006;2023-03-01T02:08:14;11.73;;;6.53;;
61635;SDS011;59438;45.014;39.006;2023-03-01T02:10:43;8.90;;;6.15;;
61635;SDS011;59438;45.014;39.006;2023-03-01T02:13:11;11.00;;;6.28;;
61635;SDS011;59438;45.014;39.006;2023-03-01T02:15:39;11.68;;;6.75;;
61635;SDS011;59438;45.014;39.006;2023-03-01T02:18:07;9.43;;;5.95;;
61635;SDS011;59438;45.014;39.006;2023-03-01T02:20:37;11.50;;;7.22;;
61635;SDS011;59438;45.014;39.006;2023-03-01T02:23:10;12.15;;;7.18;;
61635;SDS011;59438;45.014;39.006;2023-03-01T02:25:39;10.05;;;6.18;;
61635;SDS011;59438;45.014;39.006;2023-03-01T02:28:25;12.68;;;6.68;;
61635;SDS011;59438;45.014;39.006;2023-03-01T02:30:52;11.43;;;6.57;;
61635;SDS011;59438;45.014;39.006;2023-03-01T02:33:19;13.52;;;6.80;;
61635;SDS011;59438;45.014;39.006;2023-03-01T02:35:45;11.13;;;6.78;;
61635;SDS011;59438;45.014;39.006;2023-03-01T02:38:12;14.20;;;6.75;;
61635;SDS011;59438;45.014;39.006;2023-03-01T02:40:38;11.18;;;7.30;;
61635;SDS011;59438;45.014;39.006;2023-03-01T02:43:06;13.25;;;6.95;;
61635;SDS011;59438;45.014;39.006;2023-03-01T02:45:37;11.85;;;7.15;;
61635;SDS011;59438;45.014;39.006;2023-03-01T02:48:08;21.50;;;7.32;;
61635;SDS011;59438;45.014;39.006;2023-03-01T02:53:39;11.88;;;6.35;;
61635;SDS011;59438;45.014;39.006;2023-03-01T02:56:13;13.77;;;7.53;;
61635;SDS011;59438;45.014;39.006;2023-03-01T02:58:41;13.48;;;7.63;;
61635;SDS011;59438;45.014;39.006;2023-03-01T03:01:10;13.32;;;6.60;;
61635;SDS011;59438;45.014;39.006;2023-03-01T03:03:36;12.50;;;7.25;;
61635;SDS011;59438;45.014;39.006;2023-03-01T03:06:03;14.38;;;7.97;;
61635;SDS011;59438;45.014;39.006;2023-03-01T03:08:29;15.00;;;7.95;;
61635;SDS011;59438;45.014;39.006;2023-03-01T03:10:55;15.88;;;7.88;;
61635;SDS011;59438;45.014;39.006;2023-03-01T03:13:22;16.52;;;8.05;;
61635;SDS011;59438;45.014;39.006;2023-03-01T03:15:48;12.63;;;7.50;;
61635;SDS011;59438;45.014;39.006;2023-03-01T03:18:16;13.88;;;8.20;;
61635;SDS011;59438;45.014;39.006;2023-03-01T03:20:43;15.73;;;8.32;;
61635;SDS011;59438;45.014;39.006;2023-03-01T03:23:11;16.85;;;8.30;;
61635;SDS011;59438;45.014;39.006;2023-03-01T03:25:37;16.02;;;8.93;;
61635;SDS011;59438;45.014;39.006;2023-03-01T03:28:04;14.30;;;7.80;;
61635;SDS011;59438;45.014;39.006;2023-03-01T03:30:32;17.27;;;8.70;;
61635;SDS011;59438;45.014;39.006;2023-03-01T03:32:58;13.90;;;8.40;;
61635;SDS011;59438;45.014;39.006;2023-03-01T03:35:27;18.17;;;8.52;;
61635;SDS011;59438;45.014;39.006;2023-03-01T03:37:55;20.33;;;9.20;;
61635;SDS011;59438;45.014;39.006;2023-03-01T03:40:22;14.82;;;8.90;;
61635;SDS011;59438;45.014;39.006;2023-03-01T03:42:49;20.35;;;9.00;;
61635;SDS011;59438;45.014;39.006;2023-03-01T03:45:15;18.63;;;8.63;;
61635;SDS011;59438;45.014;39.006;2023-03-01T03:47:42;21.73;;;9.25;;
61635;SDS011;59438;45.014;39.006;2023-03-01T03:50:09;15.00;;;8.13;;
61635;SDS011;59438;45.014;39.006;2023-03-01T03:52:38;16.23;;;8.43;;
61635;SDS011;59438;45.014;39.006;2023-03-01T03:55:05;16.77;;;8.50;;
61635;SDS011;59438;45.014;39.006;2023-03-01T03:57:32;14.98;;;7.93;;
61635;SDS011;59438;45.014;39.006;2023-03-01T03:59:59;18.85;;;8.32;;
61635;SDS011;59438;45.014;39.006;2023-03-01T04:02:25;22.27;;;8.88;;
61635;SDS011;59438;45.014;39.006;2023-03-01T04:04:51;16.13;;;9.20;;
61635;SDS011;59438;45.014;39.006;2023-03-01T04:07:18;18.65;;;8.13;;
61635;SDS011;59438;45.014;39.006;2023-03-01T04:09:45;16.08;;;8.32;;
61635;SDS011;59438;45.014;39.006;2023-03-01T04:12:12;17.40;;;9.25;;
61635;SDS011;59438;45.014;39.006;2023-03-01T04:14:38;20.23;;;9.13;;
61635;SDS011;59438;45.014;39.006;2023-03-01T04:17:05;16.33;;;8.93;;
61635;SDS011;59438;45.014;39.006;2023-03-01T04:19:31;15.32;;;8.63;;
61635;SDS011;59438;45.014;39.006;2023-03-01T04:21:57;16.02;;;8.38;;
61635;SDS011;59438;45.014;39.006;2023-03-01T04:24:24;15.55;;;8.40;;
61635;SDS011;59438;45.014;39.006;2023-03-01T04:26:52;18.98;;;8.73;;
61635;SDS011;59438;45.014;39.006;2023-03-01T04:29:18;16.67;;;8.50;;
61635;SDS011;59438;45.014;39.006;2023-03-01T04:31:44;20.05;;;8.48;;
61635;SDS011;59438;45.014;39.006;2023-03-01T04:34:10;14.73;;;8.13;;
61635;SDS011;59438;45.014;39.006;2023-03-01T04:36:37;15.38;;;7.95;;
61635;SDS011;59438;45.014;39.006;2023-03-01T04:39:03;14.38;;;8.25;;
61635;SDS011;59438;45.014;39.006;2023-03-01T04:41:29;15.20;;;8.52;;
61635;SDS011;59438;45.014;39.006;2023-03-01T04:43:57;16.70;;;9.25;;
61635;SDS011;59438;45.014;39.006;2023-03-01T04:46:24;17.20;;;7.78;;
61635;SDS011;59438;45.014;39.006;2023-03-01T04:48:50;12.50;;;7.63;;
61635;SDS011;59438;45.014;39.006;2023-03-01T04:51:16;16.30;;;8.40;;
61635;SDS011;59438;45.014;39.006;2023-03-01T04:53:43;17.20;;;8.10;;
61635;SDS011;59438;45.014;39.006;2023-03-01T04:56:09;16.05;;;8.15;;
61635;SDS011;59438;45.014;39.006;2023-03-01T04:58:36;14.98;;;8.10;;
61635;SDS011;59438;45.014;39.006;2023-03-01T05:01:09;15.38;;;7.97;;
61635;SDS011;59438;45.014;39.006;2023-03-01T05:03:36;15.15;;;8.45;;
61635;SDS011;59438;45.014;39.006;2023-03-01T05:06:02;12.10;;;7.50;;
61635;SDS011;59438;45.014;39.006;2023-03-01T05:08:29;13.23;;;8.25;;
61635;SDS011;59438;45.014;39.006;2023-03-01T05:10:55;17.63;;;8.45;;
61635;SDS011;59438;45.014;39.006;2023-03-01T05:13:21;14.65;;;8.07;;
61635;SDS011;59438;45.014;39.006;2023-03-01T05:15:48;13.95;;;7.28;;
61635;SDS011;59438;45.014;39.006;2023-03-01T05:18:20;14.73;;;7.68;;
61635;SDS011;59438;45.014;39.006;2023-03-01T05:20:46;12.93;;;7.70;;
61635;SDS011;59438;45.014;39.006;2023-03-01T05:23:13;15.05;;;7.60;;
61635;SDS011;59438;45.014;39.006;2023-03-01T05:25:39;14.68;;;8.07;;
61635;SDS011;59438;45.014;39.006;2023-03-01T05:28:06;13.65;;;7.97;;
61635;SDS011;59438;45.014;39.006;2023-03-01T05:30:35;17.52;;;8.10;;
61635;SDS011;59438;45.014;39.006;2023-03-01T05:33:02;15.75;;;8.02;;
61635;SDS011;59438;45.014;39.006;2023-03-01T05:35:32;15.98;;;8.70;;
61635;SDS011;59438;45.014;39.006;2023-03-01T05:37:58;13.60;;;8.33;;
61635;SDS011;59438;45.014;39.006;2023-03-01T05:40:25;11.40;;;6.97;;
61635;SDS011;59438;45.014;39.006;2023-03-01T05:42:52;15.88;;;7.18;;
61635;SDS011;59438;45.014;39.006;2023-03-01T05:45:22;14.95;;;7.65;;
61635;SDS011;59438;45.014;39.006;2023-03-01T05:47:49;13.98;;;7.95;;
61635;SDS011;59438;45.014;39.006;2023-03-01T05:50:17;18.58;;;7.53;;
61635;SDS011;59438;45.014;39.006;2023-03-01T05:52:46;12.73;;;6.47;;
61635;SDS011;59438;45.014;39.006;2023-03-01T05:55:14;16.50;;;8.07;;
61635;SDS011;59438;45.014;39.006;2023-03-01T05:57:42;13.43;;;7.35;;
61635;SDS011;59438;45.014;39.006;2023-03-01T06:00:09;16.98;;;7.05;;
61635;SDS011;59438;45.014;39.006;2023-03-01T06:02:37;13.57;;;7.22;;
61635;SDS011;59438;45.014;39.006;2023-03-01T06:05:04;18.38;;;7.50;;
61635;SDS011;59438;45.014;39.006;2023-03-01T06:07:31;15.57;;;7.70;;
61635;SDS011;59438;45.014;39.006;2023-03-01T06:09:59;12.75;;;7.05;;
61635;SDS011;59438;45.014;39.006;2023-03-01T06:12:27;12.98;;;7.30;;
61635;SDS011;59438;45.014;39.006;2023-03-01T06:14:56;13.60;;;7.38;;
61635;SDS011;59438;45.014;39.006;2023-03-01T06:17:41;12.30;;;7.38;;
61635;SDS011;59438;45.014;39.006;2023-03-01T06:20:29;15.02;;;8.55;;
61635;SDS011;59438;45.014;39.006;2023-03-01T06:23:16;16.70;;;8.65;;
61635;SDS011;59438;45.014;39.006;2023-03-01T06:26:06;21.70;;;9.25;;
61635;SDS011;59438;45.014;39.006;2023-03-01T06:28:53;23.75;;;10.13;;
61635;SDS011;59438;45.014;39.006;2023-03-01T06:31:40;17.92;;;8.48;;
61635;SDS011;59438;45.014;39.006;2023-03-01T06:34:26;19.92;;;9.43;;
61635;SDS011;59438;45.014;39.006;2023-03-01T06:37:13;15.85;;;9.00;;
61635;SDS011;59438;45.014;39.006;2023-03-01T06:40:00;14.02;;;7.95;;
61635;SDS011;59438;45.014;39.006;2023-03-01T06:42:49;15.30;;;8.63;;
61635;SDS011;59438;45.014;39.006;2023-03-01T06:45:36;14.95;;;8.55;;
61635;SDS011;59438;45.014;39.006;2023-03-01T06:48:23;17.25;;;8.25;;
61635;SDS011;59438;45.014;39.006;2023-03-01T06:51:10;16.02;;;8.35;;
61635;SDS011;59438;45.014;39.006;2023-03-01T06:53:56;18.67;;;8.05;;
61635;SDS011;59438;45.014;39.006;2023-03-01T06:56:43;16.13;;;8.63;;
61635;SDS011;59438;45.014;39.006;2023-03-01T06:59:34;13.75;;;8.27;;
61635;SDS011;59438;45.014;39.006;2023-03-01T07:02:21;17.25;;;8.65;;
61635;SDS011;59438;45.014;39.006;2023-03-01T07:05:07;17.80;;;8.23;;
61635;SDS011;59438;45.014;39.006;2023-03-01T07:30:42;22.75;;;10.07;;
61635;SDS011;59438;45.014;39.006;2023-03-01T07:33:29;16.77;;;8.70;;
61635;SDS011;59438;45.014;39.006;2023-03-01T07:36:15;15.65;;;8.90;;
61635;SDS011;59438;45.014;39.006;2023-03-01T07:52:46;13.43;;;8.73;;
61635;SDS011;59438;45.014;39.006;2023-03-01T07:55:13;14.10;;;8.05;;
61635;SDS011;59438;45.014;39.006;2023-03-01T07:57:40;14.35;;;8.02;;
61635;SDS011;59438;45.014;39.006;2023-03-01T08:00:07;13.75;;;8.10;;
61635;SDS011;59438;45.014;39.006;2023-03-01T08:02:36;12.10;;;7.68;;
61635;SDS011;59438;45.014;39.006;2023-03-01T08:05:03;17.45;;;7.93;;
61635;SDS011;59438;45.014;39.006;2023-03-01T08:07:30;12.82;;;7.55;;
61635;SDS011;59438;45.014;39.006;2023-03-01T08:09:57;13.10;;;7.80;;
61635;SDS011;59438;45.014;39.006;2023-03-01T08:12:24;15.18;;;7.80;;
61635;SDS011;59438;45.014;39.006;2023-03-01T08:14:50;13.40;;;7.85;;
61635;SDS011;59438;45.014;39.006;2023-03-01T08:17:17;13.57;;;8.40;;
61635;SDS011;59438;45.014;39.006;2023-03-01T08:19:43;19.13;;;9.10;;
61635;SDS011;59438;45.014;39.006;2023-03-01T08:22:09;12.57;;;8.07;;
61635;SDS011;59438;45.014;39.006;2023-03-01T08:24:36;11.50;;;7.55;;
61635;SDS011;59438;45.014;39.006;2023-03-01T08:27:03;15.30;;;7.65;;
61635;SDS011;59438;45.014;39.006;2023-03-01T08:29:30;15.52;;;9.10;;
61635;SDS011;59438;45.014;39.006;2023-03-01T08:31:57;13.30;;;7.70;;
61635;SDS011;59438;45.014;39.006;2023-03-01T08:34:23;13.55;;;8.05;;
61635;SDS011;59438;45.014;39.006;2023-03-01T08:36:49;15.50;;;8.55;;
61635;SDS011;59438;45.014;39.006;2023-03-01T08:39:16;14.52;;;8.23;;
61635;SDS011;59438;45.014;39.006;2023-03-01T08:41:43;18.23;;;8.85;;
61635;SDS011;59438;45.014;39.006;2023-03-01T08:44:12;18.48;;;8.07;;
61635;SDS011;59438;45.014;39.006;2023-03-01T08:46:39;13.88;;;7.35;;
61635;SDS011;59438;45.014;39.006;2023-03-01T08:49:07;14.93;;;7.78;;
61635;SDS011;59438;45.014;39.006;2023-03-01T08:51:35;14.55;;;8.60;;
61635;SDS011;59438;45.014;39.006;2023-03-01T08:54:01;14.48;;;8.27;;
61635;SDS011;59438;45.014;39.006;2023-03-01T08:56:27;11.88;;;7.20;;
61635;SDS011;59438;45.014;39.006;2023-03-01T08:58:54;12.38;;;7.07;;
61635;SDS011;59438;45.014;39.006;2023-03-01T09:01:22;14.45;;;7.05;;
61635;SDS011;59438;45.014;39.006;2023-03-01T09:03:48;13.50;;;7.40;;
61635;SDS011;59438;45.014;39.006;2023-03-01T09:06:14;16.08;;;7.10;;
61635;SDS011;59438;45.014;39.006;2023-03-01T09:08:42;17.08;;;7.70;;
61635;SDS011;59438;45.014;39.006;2023-03-01T09:11:10;14.45;;;7.63;;
61635;SDS011;59438;45.014;39.006;2023-03-01T09:13:38;15.27;;;6.97;;
61635;SDS011;59438;45.014;39.006;2023-03-01T09:16:06;18.88;;;6.68;;
61635;SDS011;59438;45.014;39.006;2023-03-01T09:18:34;13.15;;;7.10;;
61635;SDS011;59438;45.014;39.006;2023-03-01T09:21:01;18.42;;;7.30;;
61635;SDS011;59438;45.014;39.006;2023-03-01T09:23:28;12.32;;;7.28;;
61635;SDS011;59438;45.014;39.006;2023-03-01T09:25:55;13.82;;;6.72;;
61635;SDS011;59438;45.014;39.006;2023-03-01T09:28:21;16.63;;;7.32;;
61635;SDS011;59438;45.014;39.006;2023-03-01T09:30:47;12.02;;;7.20;;
61635;SDS011;59438;45.014;39.006;2023-03-01T09:33:14;13.60;;;8.10;;
61635;SDS011;59438;45.014;39.006;2023-03-01T09:35:41;13.90;;;7.47;;
61635;SDS011;59438;45.014;39.006;2023-03-01T09:38:08;16.83;;;8.57;;
61635;SDS011;59438;45.014;39.006;2023-03-01T09:40:34;13.38;;;7.78;;
61635;SDS011;59438;45.014;39.006;2023-03-01T09:43:01;14.85;;;7.38;;
61635;SDS011;59438;45.014;39.006;2023-03-01T09:45:38;11.68;;;7.40;;
61635;SDS011;59438;45.014;39.006;2023-03-01T09:48:09;17.05;;;8.02;;
61635;SDS011;59438;45.014;39.006;2023-03-01T09:50:43;12.88;;;7.40;;
61635;SDS011;59438;45.014;39.006;2023-03-01T09:53:11;15.32;;;7.55;;
61635;SDS011;59438;45.014;39.006;2023-03-01T09:55:43;12.30;;;7.13;;
61635;SDS011;59438;45.014;39.006;2023-03-01T10:01:02;16.50;;;7.53;;
61635;SDS011;59438;45.014;39.006;2023-03-01T10:03:42;13.15;;;7.22;;
61635;SDS011;59438;45.014;39.006;2023-03-01T10:06:12;13.95;;;8.18;;
61635;SDS011;59438;45.014;39.006;2023-03-01T10:08:46;15.25;;;8.32;;
61635;SDS011;59438;45.014;39.006;2023-03-01T10:11:20;18.08;;;8.25;;
61635;SDS011;59438;45.014;39.006;2023-03-01T10:13:50;20.90;;;7.95;;
61635;SDS011;59438;45.014;39.006;2023-03-01T10:16:26;18.23;;;7.72;;
61635;SDS011;59438;45.014;39.006;2023-03-01T10:18:58;15.30;;;8.00;;
61635;SDS011;59438;45.014;39.006;2023-03-01T10:21:29;17.98;;;8.40;;
61635;SDS011;59438;45.014;39.006;2023-03-01T10:23:56;12.25;;;7.20;;
61635;SDS011;59438;45.014;39.006;2023-03-01T10:26:38;15.48;;;7.80;;
61635;SDS011;59438;45.014;39.006;2023-03-01T10:29:11;12.05;;;7.10;;
61635;SDS011;59438;45.014;39.006;2023-03-01T10:31:40;13.45;;;7.13;;
61635;SDS011;59438;45.014;39.006;2023-03-01T10:34:10;17.65;;;7.30;;
61635;SDS011;59438;45.014;39.006;2023-03-01T10:36:40;13.65;;;7.40;;
61635;SDS011;59438;45.014;39.006;2023-03-01T10:39:12;10.52;;;6.88;;
61635;SDS011;59438;45.014;39.006;2023-03-01T10:41:49;15.27;;;7.47;;
61635;SDS011;59438;45.014;39.006;2023-03-01T10:44:38;15.95;;;8.02;;
61635;SDS011;59438;45.014;39.006;2023-03-01T10:47:17;14.95;;;7.28;;
61635;SDS011;59438;45.014;39.006;2023-03-01T10:49:52;14.38;;;8.15;;
61635;SDS011;59438;45.014;39.006;2023-03-01T10:52:32;14.25;;;7.85;;
61635;SDS011;59438;45.014;39.006;2023-03-01T10:55:01;16.45;;;8.85;;
61635;SDS011;59438;45.014;39.006;2023-03-01T10:57:32;15.50;;;8.70;;
61635;SDS011;59438;45.014;39.006;2023-03-01T11:02:50;13.52;;;7.00;;
61635;SDS011;59438;45.014;39.006;2023-03-01T11:05:27;12.30;;;6.15;;
61635;SDS011;59438;45.014;39.006;2023-03-01T11:07:56;10.40;;;6.35;;
61635;SDS011;59438;45.014;39.006;2023-03-01T11:10:24;11.13;;;6.47;;
61635;SDS011;59438;45.014;39.006;2023-03-01T11:12:51;8.20;;;5.40;;
61635;SDS011;59438;45.014;39.006;2023-03-01T11:15:26;10.88;;;5.80;;
61635;SDS011;59438;45.014;39.006;2023-03-01T11:17:53;13.00;;;6.78;;
61635;SDS011;59438;45.014;39.006;2023-03-01T11:20:25;15.77;;;6.80;;
61635;SDS011;59438;45.014;39.006;2023-03-01T11:22:58;10.73;;;6.78;;
61635;SDS011;59438;45.014;39.006;2023-03-01T11:25:29;12.75;;;6.65;;
61635;SDS011;59438;45.014;39.006;2023-03-01T11:27:58;10.52;;;5.82;;
61635;SDS011;59438;45.014;39.006;2023-03-01T11:30:29;12.18;;;6.53;;
61635;SDS011;59438;45.014;39.006;2023-03-01T11:35:31;9.40;;;4.88;;
61635;SDS011;59438;45.014;39.006;2023-03-01T11:38:05;13.85;;;7.05;;
61635;SDS011;59438;45.014;39.006;2023-03-01T11:40:43;11.95;;;7.05;;
61635;SDS011;59438;45.014;39.006;2023-03-01T11:43:15;16.08;;;6.45;;
61635;SDS011;59438;45.014;39.006;2023-03-01T11:45:52;13.93;;;6.78;;
61635;SDS011;59438;45.014;39.006;2023-03-01T11:48:41;16.60;;;6.90;;
61635;SDS011;59438;45.014;39.006;2023-03-01T11:51:16;16.65;;;6.30;;
61635;SDS011;59438;45.014;39.006;2023-03-01T11:53:53;12.55;;;6.47;;
61635;SDS011;59438;45.014;39.006;2023-03-01T11:59:08;11.38;;;5.63;;
61635;SDS011;59438;45.014;39.006;2023-03-01T12:01:59;13.55;;;5.15;;
61635;SDS011;59438;45.014;39.006;2023-03-01T12:04:54;11.60;;;5.35;;
61635;SDS011;59438;45.014;39.006;2023-03-01T12:07:49;10.73;;;5.70;;
61635;SDS011;59438;45.014;39.006;2023-03-01T12:10:28;19.90;;;8.60;;
61635;SDS011;59438;45.014;39.006;2023-03-01T12:19:01;15.15;;;5.90;;
61635;SDS011;59438;45.014;39.006;2023-03-01T12:21:44;11.13;;;5.97;;
61635;SDS011;59438;45.014;39.006;2023-03-01T12:24:33;11.35;;;6.55;;
61635;SDS011;59438;45.014;39.006;2023-03-01T12:27:17;13.98;;;6.57;;
61635;SDS011;59438;45.014;39.006;2023-03-01T12:29:59;15.00;;;5.90;;
61635;SDS011;59438;45.014;39.006;2023-03-01T12:32:39;11.60;;;5.80;;
61635;SDS011;59438;45.014;39.006;2023-03-01T12:38:12;10.73;;;5.93;;
61635;SDS011;59438;45.014;39.006;2023-03-01T12:41:00;13.07;;;7.50;;
61635;SDS011;59438;45.014;39.006;2023-03-01T12:43:44;12.77;;;6.82;;
61635;SDS011;59438;45.014;39.006;2023-03-01T12:46:24;11.70;;;5.50;;
61635;SDS011;59438;45.014;39.006;2023-03-01T12:49:02;12.05;;;5.53;;
61635;SDS011;59438;45.014;39.006;2023-03-01T12:51:34;11.70;;;5.63;;
61635;SDS011;59438;45.014;39.006;2023-03-01T12:54:05;10.98;;;5.45;;
61635;SDS011;59438;45.014;39.006;2023-03-01T12:56:40;11.27;;;5.13;;
61635;SDS011;59438;45.014;39.006;2023-03-01T12:59:11;12.60;;;5.07;;
61635;SDS011;59438;45.014;39.006;2023-03-01T13:01:45;13.05;;;4.95;;
61635;SDS011;59438;45.014;39.006;2023-03-01T13:04:30;15.27;;;6.57;;
61635;SDS011;59438;45.014;39.006;2023-03-01T13:07:11;16.58;;;6.43;;
61635;SDS011;59438;45.014;39.006;2023-03-01T13:09:47;17.67;;;6.95;;
61635;SDS011;59438;45.014;39.006;2023-03-01T13:15:31;26.85;;;8.30;;
61635;SDS011;59438;45.014;39.006;2023-03-01T13:17:59;18.77;;;8.88;;
61635;SDS011;59438;45.014;39.006;2023-03-01T13:20:27;23.65;;;8.63;;
61635;SDS011;59438;45.014;39.006;2023-03-01T13:23:01;19.73;;;9.07;;
61635;SDS011;59438;45.014;39.006;2023-03-01T13:37:17;19.35;;;7.82;;
61635;SDS011;59438;45.014;39.006;2023-03-01T13:39:46;18.08;;;8.07;;
61635;SDS011;59438;45.014;39.006;2023-03-01T13:45:24;18.95;;;8.52;;
61635;SDS011;59438;45.014;39.006;2023-03-01T13:48:00;16.67;;;7.88;;
61635;SDS011;59438;45.014;39.006;2023-03-01T13:50:31;22.10;;;7.93;;
61635;SDS011;59438;45.014;39.006;2023-03-01T13:53:02;18.45;;;7.70;;
61635;SDS011;59438;45.014;39.006;2023-03-01T13:55:34;16.20;;;8.20;;
61635;SDS011;59438;45.014;39.006;2023-03-01T13:58:13;21.85;;;8.90;;
61635;SDS011;59438;45.014;39.006;2023-03-01T14:00:44;17.67;;;7.90;;
61635;SDS011;59438;45.014;39.006;2023-03-01T14:03:11;19.45;;;8.75;;
61635;SDS011;59438;45.014;39.006;2023-03-01T14:05:41;19.02;;;8.45;;
61635;SDS011;59438;45.014;39.006;2023-03-01T14:08:20;19.65;;;8.43;;
61635;SDS011;59438;45.014;39.006;2023-03-01T14:10:54;23.02;;;8.85;;
61635;SDS011;59438;45.014;39.006;2023-03-01T14:13:36;18.92;;;10.07;;
61635;SDS011;59438;45.014;39.006;2023-03-01T14:16:17;18.50;;;8.75;;
61635;SDS011;59438;45.014;39.006;2023-03-01T14:18:55;16.17;;;8.30;;
61635;SDS011;59438;45.014;39.006;2023-03-01T14:21:29;13.57;;;6.97;;
61635;SDS011;59438;45.014;39.006;2023-03-01T14:23:56;16.83;;;6.47;;
61635;SDS011;59438;45.014;39.006;2023-03-01T14:26:23;20.38;;;6.78;;
61635;SDS011;59438;45.014;39.006;2023-03-01T14:28:50;18.35;;;6.57;;
61635;SDS011;59438;45.014;39.006;2023-03-01T14:31:30;11.65;;;5.97;;
61635;SDS011;59438;45.014;39.006;2023-03-01T14:34:00;14.05;;;6.80;;
61635;SDS011;59438;45.014;39.006;2023-03-01T14:36:26;13.73;;;7.10;;
61635;SDS011;59438;45.014;39.006;2023-03-01T14:38:56;15.05;;;7.32;;
61635;SDS011;59438;45.014;39.006;2023-03-01T14:41:23;16.50;;;7.85;;
61635;SDS011;59438;45.014;39.006;2023-03-01T14:43:52;20.63;;;8.73;;
61635;SDS011;59438;45.014;39.006;2023-03-01T14:46:22;20.35;;;7.97;;
61635;SDS011;59438;45.014;39.006;2023-03-01T14:48:53;18.52;;;8.43;;
61635;SDS011;59438;45.014;39.006;2023-03-01T14:51:22;27.83;;;9.18;;
61635;SDS011;59438;45.014;39.006;2023-03-01T14:53:48;16.05;;;8.75;;
61635;SDS011;59438;45.014;39.006;2023-03-01T14:56:17;25.77;;;9.90;;
61635;SDS011;59438;45.014;39.006;2023-03-01T14:58:44;18.02;;;8.57;;
61635;SDS011;59438;45.014;39.006;2023-03-01T15:01:12;23.95;;;10.27;;
61635;SDS011;59438;45.014;39.006;2023-03-01T15:03:41;17.38;;;10.00;;
61635;SDS011;59438;45.014;39.006;2023-03-01T15:06:10;21.33;;;10.68;;
61635;SDS011;59438;45.014;39.006;2023-03-01T15:08:58;27.77;;;11.45;;
61635;SDS011;59438;45.014;39.006;2023-03-01T15:11:27;20.75;;;10.27;;
61635;SDS011;59438;45.014;39.006;2023-03-01T15:13:55;24.80;;;10.10;;
61635;SDS011;59438;45.014;39.006;2023-03-01T15:16:22;22.73;;;10.23;;
61635;SDS011;59438;45.014;39.006;2023-03-01T15:18:52;18.60;;;10.05;;
61635;SDS011;59438;45.014;39.006;2023-03-01T15:21:21;21.67;;;10.15;;
61635;SDS011;59438;45.014;39.006;2023-03-01T15:23:50;22.02;;;11.80;;
61635;SDS011;59438;45.014;39.006;2023-03-01T15:26:24;24.17;;;10.18;;
61635;SDS011;59438;45.014;39.006;2023-03-01T15:28:54;28.50;;;11.10;;
61635;SDS011;59438;45.014;39.006;2023-03-01T15:31:24;22.83;;;11.63;;
61635;SDS011;59438;45.014;39.006;2023-03-01T15:33:51;22.67;;;10.52;;
61635;SDS011;59438;45.014;39.006;2023-03-01T15:36:33;19.45;;;9.65;;
61635;SDS011;59438;45.014;39.006;2023-03-01T15:39:05;24.65;;;11.05;;
61635;SDS011;59438;45.014;39.006;2023-03-01T15:41:52;19.13;;;10.05;;
61635;SDS011;59438;45.014;39.006;2023-03-01T15:44:25;19.88;;;9.63;;
61635;SDS011;59438;45.014;39.006;2023-03-01T15:46:52;21.70;;;10.35;;
61635;SDS011;59438;45.014;39.006;2023-03-01T15:49:23;19.42;;;10.52;;
61635;SDS011;59438;45.014;39.006;2023-03-01T15:51:58;18.83;;;9.70;;
61635;SDS011;59438;45.014;39.006;2023-03-01T15:54:26;17.75;;;9.18;;
61635;SDS011;59438;45.014;39.006;2023-03-01T15:56:55;18.63;;;9.68;;
61635;SDS011;59438;45.014;39.006;2023-03-01T15:59:21;20.30;;;9.65;;